createdAt,value
2023-01-27T00:02:42.921Z,4.61
2023-01-27T00:05:28.758Z,4.57
2023-01-27T00:08:15.159Z,4.62
2023-01-27T00:11:19.944Z,4.63
2023-01-27T00:14:05.961Z,4.60
2023-01-27T00:16:52.233Z,4.58
2023-01-27T00:19:38.202Z,4.63
2023-01-27T00:22:42.834Z,4.67
2023-01-27T00:25:28.790Z,4.65
2023-01-27T00:28:22.982Z,4.62
2023-01-27T00:31:29.544Z,4.73
2023-01-27T00:34:15.842Z,4.66
2023-01-27T00:37:01.578Z,4.67
2023-01-27T00:39:47.480Z,4.69
2023-01-27T00:42:33.270Z,4.70
2023-01-27T00:45:37.745Z,4.58
2023-01-27T00:48:24.811Z,4.60
2023-01-27T00:51:11.495Z,4.74
2023-01-27T00:53:59.297Z,4.62
2023-01-27T00:56:45.211Z,4.62
2023-01-27T00:59:31.907Z,4.52
2023-01-27T01:02:18.069Z,4.54
2023-01-27T01:05:04.112Z,4.55
2023-01-27T01:07:50.024Z,4.52
2023-01-27T01:10:38.003Z,4.47
2023-01-27T01:13:24.027Z,4.53
2023-01-27T01:16:19.174Z,4.51
2023-01-27T01:19:04.931Z,4.44
2023-01-27T01:21:50.819Z,4.42
2023-01-27T01:24:36.614Z,4.42
2023-01-27T01:27:22.943Z,4.44
2023-01-27T01:30:09.841Z,4.42
2023-01-27T01:32:56.977Z,4.39
2023-01-27T01:35:43.558Z,4.36
2023-01-27T01:38:29.656Z,4.34
2023-01-27T01:41:18.634Z,4.29
2023-01-27T01:44:31.033Z,4.37
2023-01-27T01:47:19.159Z,4.26
2023-01-27T01:50:05.589Z,4.25
2023-01-27T01:52:52.226Z,4.23
2023-01-27T01:55:39.611Z,4.25
2023-01-27T01:58:28.113Z,4.30
2023-01-27T02:01:19.094Z,4.34
2023-01-27T02:04:09.632Z,4.27
2023-01-27T02:07:07.069Z,4.20
2023-01-27T02:09:55.213Z,4.24
2023-01-27T02:12:41.309Z,4.24
2023-01-27T02:15:29.384Z,4.24
2023-01-27T02:18:15.107Z,4.23
2023-01-27T02:21:01.301Z,4.24
2023-01-27T02:23:56.433Z,4.22
2023-01-27T02:26:44.389Z,4.18
2023-01-27T02:29:30.045Z,4.21
2023-01-27T02:32:23.751Z,4.13
2023-01-27T02:35:13.305Z,4.25
2023-01-27T02:37:59.693Z,4.17
2023-01-27T02:40:49.068Z,4.16
2023-01-27T02:43:35.223Z,4.15
2023-01-27T02:46:21.447Z,4.18
2023-01-27T02:49:07.571Z,4.23
2023-01-27T02:51:54.419Z,4.17
2023-01-27T02:54:41.360Z,4.14
2023-01-27T02:57:27.634Z,4.26
2023-01-27T03:00:33.657Z,4.17
2023-01-27T03:03:19.726Z,4.16
2023-01-27T03:06:05.896Z,4.20
2023-01-27T03:08:51.895Z,4.16
2023-01-27T03:11:56.291Z,4.20
2023-01-27T03:15:01.314Z,4.21
2023-01-27T03:18:05.922Z,4.22
2023-01-27T03:20:52.301Z,4.22
2023-01-27T03:23:38.624Z,4.12
2023-01-27T03:26:25.037Z,4.24
2023-01-27T03:29:33.959Z,4.18
2023-01-27T03:32:20.787Z,4.24
2023-01-27T03:35:23.384Z,4.27
2023-01-27T03:38:31.875Z,4.16
2023-01-27T03:41:36.183Z,4.28
2023-01-27T03:44:40.752Z,4.28
2023-01-27T03:47:27.256Z,4.30
2023-01-27T03:50:19.344Z,4.25
2023-01-27T03:53:05.725Z,4.29
2023-01-27T03:55:51.845Z,4.25
2023-01-27T03:58:38.052Z,4.22
2023-01-27T04:01:24.523Z,4.19
2023-01-27T04:04:30.241Z,4.16
2023-01-27T04:07:20.013Z,4.11
2023-01-27T04:10:06.757Z,4.15
2023-01-27T04:12:52.821Z,4.13
2023-01-27T04:15:38.618Z,4.13
2023-01-27T04:18:24.363Z,4.08
2023-01-27T04:21:10.074Z,4.11
2023-01-27T04:23:56.550Z,4.01
2023-01-27T04:26:43.897Z,4.10
2023-01-27T04:29:31.783Z,4.09
2023-01-27T04:32:17.673Z,4.06
2023-01-27T04:35:03.592Z,3.99
2023-01-27T04:37:49.808Z,4.04
2023-01-27T04:40:35.699Z,4.04
2023-01-27T04:43:21.309Z,4.01
2023-01-27T04:46:07.267Z,3.92
2023-01-27T04:48:53.092Z,4.01
2023-01-27T04:51:39.027Z,3.92
2023-01-27T04:54:24.860Z,3.98
2023-01-27T04:57:10.655Z,3.92
2023-01-27T04:59:56.490Z,3.97
2023-01-27T05:02:43.313Z,3.91
2023-01-27T05:05:29.052Z,3.96
2023-01-27T05:08:15.313Z,3.93
2023-01-27T05:11:01.561Z,3.94
2023-01-27T05:13:47.383Z,3.94
2023-01-27T05:16:33.319Z,3.85
2023-01-27T05:19:19.167Z,3.88
2023-01-27T05:22:05.110Z,3.85
2023-01-27T05:24:51.057Z,3.83
2023-01-27T05:27:37.415Z,3.88
2023-01-27T05:30:23.357Z,3.74
2023-01-27T05:33:10.989Z,3.79
2023-01-27T05:36:01.622Z,3.84
2023-01-27T05:38:47.570Z,3.89
2023-01-27T05:41:34.913Z,3.88
2023-01-27T05:44:20.873Z,3.82
2023-01-27T05:47:06.831Z,3.96
2023-01-27T05:49:52.872Z,3.92
2023-01-27T05:52:38.496Z,3.92
2023-01-27T05:55:24.423Z,3.93
2023-01-27T05:58:10.244Z,3.98
2023-01-27T06:00:56.153Z,3.92
2023-01-27T06:03:43.035Z,3.92
2023-01-27T06:06:30.780Z,3.89
2023-01-27T06:09:16.432Z,3.95
2023-01-27T06:12:02.389Z,3.93
2023-01-27T06:14:48.040Z,3.92
2023-01-27T06:17:34.104Z,3.93
2023-01-27T06:20:21.025Z,4.01
2023-01-27T06:23:10.341Z,3.93
2023-01-27T06:25:56.802Z,3.95
2023-01-27T06:28:43.094Z,3.95
2023-01-27T06:31:29.407Z,3.86
2023-01-27T06:34:15.806Z,3.88
2023-01-27T06:37:01.682Z,3.93
2023-01-27T06:39:47.356Z,3.94
2023-01-27T06:42:33.403Z,3.99
2023-01-27T06:45:19.542Z,3.89
2023-01-27T06:48:05.610Z,3.88
2023-01-27T06:50:53.299Z,3.72
2023-01-27T06:53:39.884Z,3.89
2023-01-27T06:56:25.821Z,3.97
2023-01-27T06:59:11.757Z,3.89
2023-01-27T07:01:57.953Z,3.92
2023-01-27T07:04:43.730Z,3.94
2023-01-27T07:07:29.685Z,3.95
2023-01-27T07:10:16.021Z,3.87
2023-01-27T07:13:07.207Z,3.97
2023-01-27T07:15:56.746Z,3.98
2023-01-27T07:18:42.821Z,4.05
2023-01-27T07:21:28.481Z,4.02
2023-01-27T07:24:14.247Z,3.95
2023-01-27T07:27:00.300Z,3.98
2023-01-27T07:29:46.117Z,4.09
2023-01-27T07:32:32.051Z,4.10
2023-01-27T07:35:18.209Z,4.13
2023-01-27T07:38:05.539Z,4.14
2023-01-27T07:40:51.746Z,4.16
2023-01-27T07:43:37.625Z,4.01
2023-01-27T07:46:26.750Z,4.14
2023-01-27T07:49:12.719Z,4.11
2023-01-27T07:51:58.662Z,4.23
2023-01-27T07:54:44.476Z,4.11
2023-01-27T07:57:30.264Z,4.12
2023-01-27T08:00:16.475Z,4.17
2023-01-27T08:03:03.100Z,4.20
2023-01-27T08:05:49.564Z,4.22
2023-01-27T08:08:37.970Z,4.19
2023-01-27T08:11:23.979Z,4.27
2023-01-27T08:14:09.956Z,4.25
2023-01-27T08:16:55.869Z,4.26
2023-01-27T08:19:42.039Z,4.27
2023-01-27T08:22:31.407Z,4.32
2023-01-27T08:25:17.275Z,4.18
2023-01-27T08:28:03.044Z,4.32
2023-01-27T08:30:52.076Z,4.35
2023-01-27T08:33:39.194Z,4.45
2023-01-27T08:36:25.530Z,4.35
2023-01-27T08:39:11.961Z,4.32
2023-01-27T08:41:58.170Z,4.40
2023-01-27T08:44:43.851Z,4.37
2023-01-27T08:47:29.744Z,4.30
2023-01-27T08:50:16.087Z,4.39
2023-01-27T08:53:04.183Z,4.38
2023-01-27T08:55:50.641Z,4.27
2023-01-27T08:58:36.585Z,4.35
2023-01-27T09:01:22.585Z,4.28
2023-01-27T09:04:08.816Z,4.36
2023-01-27T09:06:54.477Z,4.42
2023-01-27T09:09:40.510Z,4.29
2023-01-27T09:12:26.455Z,4.47
2023-01-27T09:15:13.512Z,4.53
2023-01-27T09:18:00.257Z,4.59
2023-01-27T09:20:47.011Z,4.47
2023-01-27T09:23:33.646Z,4.66
2023-01-27T09:26:19.552Z,4.66
2023-01-27T09:29:05.497Z,4.60
2023-01-27T09:31:51.372Z,4.76
2023-01-27T09:34:37.381Z,4.81
2023-01-27T09:37:25.894Z,4.87
2023-01-27T09:40:42.416Z,4.96
2023-01-27T09:43:54.289Z,4.72
2023-01-27T09:46:55.768Z,4.90
2023-01-27T09:50:05.444Z,5.02
2023-01-27T09:53:19.253Z,5.08
2023-01-27T09:56:10.888Z,5.06
2023-01-27T09:59:25.212Z,5.00
2023-01-27T10:02:11.356Z,5.08
2023-01-27T10:05:16.046Z,5.11
2023-01-27T10:08:11.510Z,5.18
2023-01-27T10:11:00.107Z,5.20
2023-01-27T10:14:22.758Z,5.24
2023-01-27T10:17:24.695Z,5.20
2023-01-27T10:20:14.069Z,5.40
2023-01-27T10:23:02.909Z,5.47
2023-01-27T10:25:57.729Z,5.40
2023-01-27T10:28:51.281Z,5.42
2023-01-27T10:31:44.232Z,5.33
2023-01-27T10:34:34.958Z,5.46
2023-01-27T10:37:23.901Z,5.60
2023-01-27T10:40:48.206Z,5.52
2023-01-27T10:43:37.258Z,5.67
2023-01-27T10:46:47.779Z,5.67
2023-01-27T10:49:49.738Z,5.70
2023-01-27T10:52:40.577Z,5.69
2023-01-27T10:55:30.135Z,5.33
2023-01-27T10:58:26.033Z,5.71
2023-01-27T11:01:22.878Z,5.72
2023-01-27T11:04:16.726Z,5.76
2023-01-27T11:07:04.371Z,5.72
2023-01-27T11:10:19.829Z,5.76
2023-01-27T11:13:08.747Z,5.79
2023-01-27T11:15:54.859Z,5.89
2023-01-27T11:18:43.232Z,5.82
2023-01-27T11:21:30.848Z,5.82
2023-01-27T11:24:28.928Z,5.90
2023-01-27T11:27:24.287Z,5.89
2023-01-27T11:30:17.265Z,5.88
2023-01-27T11:33:18.780Z,5.75
2023-01-27T11:36:05.103Z,5.82
2023-01-27T11:38:52.285Z,5.82
2023-01-27T11:41:46.505Z,5.79
2023-01-27T11:44:34.466Z,5.78
2023-01-27T11:47:26.557Z,5.77
2023-01-27T11:50:21.072Z,5.75
2023-01-27T11:53:36.849Z,5.78
2023-01-27T11:56:24.499Z,5.47
2023-01-27T11:59:18.001Z,5.65
2023-01-27T12:02:07.095Z,5.77
2023-01-27T12:05:07.832Z,5.58
2023-01-27T12:08:01.968Z,5.59
2023-01-27T12:10:48.250Z,5.73
2023-01-27T12:13:34.437Z,5.62
2023-01-27T12:16:21.130Z,5.65
2023-01-27T12:19:24.063Z,5.56
2023-01-27T12:22:39.109Z,5.47
2023-01-27T12:25:28.104Z,5.66
2023-01-27T12:28:25.264Z,5.57
2023-01-27T12:31:31.380Z,5.59
2023-01-27T12:34:28.117Z,5.58
2023-01-27T12:37:22.069Z,5.50
2023-01-27T12:40:19.745Z,5.56
2023-01-27T12:43:20.251Z,5.49
2023-01-27T12:46:19.178Z,5.47
2023-01-27T12:49:11.316Z,5.51
2023-01-27T12:51:57.454Z,5.46
2023-01-27T12:54:43.341Z,5.50
2023-01-27T12:57:30.406Z,5.49
2023-01-27T13:00:17.099Z,5.49
2023-01-27T13:03:07.633Z,5.46
2023-01-27T13:05:55.585Z,5.43
2023-01-27T13:08:41.769Z,5.41
2023-01-27T13:11:39.211Z,5.56
2023-01-27T13:14:30.113Z,5.51
2023-01-27T13:17:45.797Z,5.49
2023-01-27T13:20:38.107Z,5.57
2023-01-27T13:23:27.927Z,5.56
2023-01-27T13:26:21.590Z,5.55
2023-01-27T13:29:10.233Z,5.56
2023-01-27T13:32:06.908Z,5.56
2023-01-27T13:34:56.070Z,5.60
2023-01-27T13:38:08.408Z,5.49
2023-01-27T13:40:54.385Z,5.60
2023-01-27T13:43:41.629Z,5.49
2023-01-27T13:46:30.750Z,5.53
2023-01-27T13:49:28.867Z,5.56
2023-01-27T13:52:14.819Z,5.47
2023-01-27T13:55:00.916Z,5.62
2023-01-27T13:57:53.266Z,5.47
2023-01-27T14:00:53.147Z,5.50
2023-01-27T14:03:39.427Z,5.55
2023-01-27T14:06:28.353Z,5.53
2023-01-27T14:09:33.058Z,5.56
2023-01-27T14:12:43.506Z,5.57
2023-01-27T14:15:38.213Z,5.57
2023-01-27T14:18:28.295Z,5.64
2023-01-27T14:21:39.338Z,5.54
2023-01-27T14:24:36.567Z,5.61
2023-01-27T14:27:29.526Z,5.60
2023-01-27T14:30:26.139Z,5.55
2023-01-27T14:33:21.084Z,5.32
2023-01-27T14:36:21.678Z,5.46
2023-01-27T14:39:33.904Z,5.44
2023-01-27T14:42:41.026Z,5.40
2023-01-27T14:45:33.378Z,5.43
2023-01-27T14:48:44.019Z,5.42
2023-01-27T14:51:39.992Z,5.39
2023-01-27T14:54:38.373Z,5.42
2023-01-27T14:57:37.333Z,5.45
2023-01-27T15:00:30.160Z,5.46
2023-01-27T15:03:23.089Z,5.35
2023-01-27T15:06:40.829Z,5.25
2023-01-27T15:09:39.187Z,5.30
2023-01-27T15:12:57.317Z,5.39
2023-01-27T15:16:09.898Z,5.30
2023-01-27T15:19:02.074Z,5.29
2023-01-27T15:21:58.711Z,5.34
2023-01-27T15:24:57.282Z,5.14
2023-01-27T15:27:44.748Z,5.25
2023-01-27T15:30:38.535Z,5.26
2023-01-27T15:33:50.083Z,5.16
2023-01-27T15:36:38.468Z,5.16
2023-01-27T15:39:35.549Z,5.11
2023-01-27T15:42:58.189Z,5.06
2023-01-27T15:45:46.592Z,5.10
2023-01-27T15:48:34.648Z,4.95
2023-01-27T15:51:21.130Z,4.86
2023-01-27T15:54:14.205Z,5.06
2023-01-27T15:57:04.611Z,5.00
2023-01-27T15:59:58.803Z,4.91
2023-01-27T16:02:46.996Z,4.92
2023-01-27T16:05:38.344Z,4.92
2023-01-27T16:08:24.782Z,4.91
2023-01-27T16:11:28.941Z,4.74
2023-01-27T16:14:15.793Z,4.96
2023-01-27T16:17:15.791Z,4.79
2023-01-27T16:20:19.997Z,4.90
2023-01-27T16:23:12.180Z,4.82
2023-01-27T16:26:30.130Z,4.92
2023-01-27T16:29:23.946Z,4.81
2023-01-27T16:32:22.111Z,4.78
2023-01-27T16:35:17.542Z,4.76
2023-01-27T16:38:08.483Z,4.75
2023-01-27T16:41:01.696Z,4.78
2023-01-27T16:43:54.728Z,4.71
2023-01-27T16:46:45.774Z,4.62
2023-01-27T16:49:37.565Z,4.73
2023-01-27T16:52:40.714Z,4.70
2023-01-27T16:55:27.525Z,4.76
2023-01-27T16:58:20.129Z,4.73
2023-01-27T17:01:06.829Z,4.59
2023-01-27T17:04:04.875Z,4.56
2023-01-27T17:06:59.205Z,4.65
2023-01-27T17:09:57.744Z,4.49
2023-01-27T17:12:46.998Z,4.57
2023-01-27T17:15:38.481Z,4.57
2023-01-27T17:18:25.255Z,4.56
2023-01-27T17:21:11.110Z,4.55
2023-01-27T17:24:06.752Z,4.51
2023-01-27T17:27:06.056Z,4.50
2023-01-27T17:30:02.124Z,4.42
2023-01-27T17:32:50.831Z,4.42
2023-01-27T17:35:38.039Z,4.50
2023-01-27T17:38:36.118Z,4.42
2023-01-27T17:41:37.230Z,4.35
2023-01-27T17:44:23.127Z,4.34
2023-01-27T17:47:18.680Z,4.26
2023-01-27T17:50:06.215Z,4.37
2023-01-27T17:52:54.037Z,4.33
2023-01-27T17:55:40.130Z,4.44
2023-01-27T17:58:27.105Z,4.34
2023-01-27T18:01:14.784Z,4.30
2023-01-27T18:04:01.206Z,4.29
2023-01-27T18:06:49.865Z,4.33
2023-01-27T18:09:44.055Z,4.25
2023-01-27T18:12:35.864Z,4.33
2023-01-27T18:15:37.749Z,4.18
2023-01-27T18:18:32.477Z,4.37
2023-01-27T18:21:26.789Z,4.38
2023-01-27T18:24:20.863Z,4.29
2023-01-27T18:27:23.017Z,4.28
2023-01-27T18:30:16.316Z,4.28
2023-01-27T18:33:04.631Z,4.30
2023-01-27T18:35:59.155Z,4.21
2023-01-27T18:38:50.696Z,4.31
2023-01-27T18:41:46.483Z,4.35
2023-01-27T18:44:36.191Z,4.25
2023-01-27T18:47:28.768Z,4.38
2023-01-27T18:50:18.574Z,4.33
2023-01-27T18:53:12.319Z,4.32
2023-01-27T18:56:00.073Z,4.26
2023-01-27T18:58:46.366Z,4.37
2023-01-27T19:01:35.133Z,4.29
2023-01-27T19:04:23.360Z,4.27
2023-01-27T19:07:17.874Z,4.30
2023-01-27T19:10:11.915Z,4.27
2023-01-27T19:13:01.743Z,4.17
2023-01-27T19:15:51.960Z,4.23
2023-01-27T19:18:39.117Z,4.30
2023-01-27T19:21:28.594Z,4.27
2023-01-27T19:24:15.084Z,4.25
2023-01-27T19:27:04.161Z,4.17
2023-01-27T19:29:51.110Z,4.22
2023-01-27T19:32:37.383Z,4.24
2023-01-27T19:35:25.459Z,4.27
2023-01-27T19:38:13.240Z,4.03
2023-01-27T19:40:59.850Z,4.17
2023-01-27T19:43:50.202Z,4.21
2023-01-27T19:46:37.298Z,4.26
2023-01-27T19:49:24.588Z,4.28
2023-01-27T19:52:11.199Z,4.37
2023-01-27T19:54:58.627Z,4.25
2023-01-27T19:57:45.644Z,4.14
2023-01-27T20:00:37.085Z,4.24
2023-01-27T20:03:23.757Z,4.38
2023-01-27T20:06:18.960Z,4.25
2023-01-27T20:09:05.211Z,4.27
2023-01-27T20:11:51.329Z,4.35
2023-01-27T20:14:37.245Z,4.27
2023-01-27T20:17:23.272Z,4.26
2023-01-27T20:20:10.032Z,4.30
2023-01-27T20:22:56.424Z,4.26
2023-01-27T20:25:42.440Z,4.31
2023-01-27T20:28:28.775Z,4.25
2023-01-27T20:31:22.640Z,4.36
2023-01-27T20:34:08.441Z,4.41
2023-01-27T20:36:54.347Z,4.50
2023-01-27T20:39:40.430Z,4.51
2023-01-27T20:42:26.313Z,4.48
2023-01-27T20:45:12.757Z,4.57
2023-01-27T20:47:59.948Z,4.52
2023-01-27T20:50:46.073Z,4.49
2023-01-27T20:53:34.331Z,4.50
2023-01-27T20:56:24.034Z,4.41
2023-01-27T20:59:09.932Z,4.47
2023-01-27T21:01:55.746Z,4.53
2023-01-27T21:04:41.518Z,4.44
2023-01-27T21:07:27.399Z,4.50
2023-01-27T21:10:13.202Z,4.49
2023-01-27T21:12:59.148Z,4.50
2023-01-27T21:15:49.024Z,4.39
2023-01-27T21:18:38.263Z,4.54
2023-01-27T21:21:27.348Z,4.59
2023-01-27T21:24:13.564Z,4.51
2023-01-27T21:26:59.753Z,4.56
2023-01-27T21:29:45.588Z,4.60
2023-01-27T21:32:31.601Z,4.63
2023-01-27T21:35:17.451Z,4.65
2023-01-27T21:38:03.464Z,4.62
2023-01-27T21:40:51.469Z,4.65
2023-01-27T21:43:56.619Z,4.65
2023-01-27T21:46:42.759Z,4.65
2023-01-27T21:49:29.037Z,4.69
2023-01-27T21:52:14.862Z,4.71
2023-01-27T21:55:02.541Z,4.69
2023-01-27T21:57:50.926Z,4.54
2023-01-27T22:00:36.691Z,4.69
2023-01-27T22:03:23.957Z,4.70
2023-01-27T22:06:10.533Z,4.61
2023-01-27T22:08:56.459Z,4.65
2023-01-27T22:11:42.221Z,4.71
2023-01-27T22:14:29.296Z,4.74
2023-01-27T22:17:16.349Z,4.72
2023-01-27T22:20:04.408Z,4.59
2023-01-27T22:22:51.991Z,4.68
2023-01-27T22:25:38.004Z,4.71
2023-01-27T22:28:24.378Z,4.64
2023-01-27T22:31:10.340Z,4.68
2023-01-27T22:33:55.938Z,4.73
2023-01-27T22:36:41.840Z,4.69
2023-01-27T22:39:27.719Z,4.69
2023-01-27T22:42:13.585Z,4.63
2023-01-27T22:44:59.796Z,4.66
2023-01-27T22:47:45.654Z,4.67
2023-01-27T22:50:31.398Z,4.67
2023-01-27T22:53:17.389Z,4.60
2023-01-27T22:56:04.161Z,4.52
2023-01-27T22:58:50.082Z,4.58
2023-01-27T23:01:36.109Z,4.52
2023-01-27T23:04:21.805Z,4.56
2023-01-27T23:07:07.494Z,4.55
2023-01-27T23:09:53.491Z,4.51
2023-01-27T23:12:39.117Z,4.49
2023-01-27T23:15:25.180Z,4.48
2023-01-27T23:18:11.472Z,4.50
2023-01-27T23:21:02.776Z,4.44
2023-01-27T23:23:51.011Z,4.52
2023-01-27T23:26:37.256Z,4.46
2023-01-27T23:29:25.295Z,4.49
2023-01-27T23:32:11.908Z,4.35
2023-01-27T23:34:57.670Z,4.35
2023-01-27T23:37:43.601Z,4.30
2023-01-27T23:40:29.478Z,4.29
2023-01-27T23:43:15.220Z,4.31
2023-01-27T23:46:00.937Z,4.27
2023-01-27T23:48:53.908Z,4.23
2023-01-27T23:51:40.066Z,4.29
2023-01-27T23:54:26.177Z,4.18
2023-01-27T23:57:11.865Z,4.18
2023-01-27T23:59:57.780Z,4.16
